sensor_id;sensor_type;location;lat;lon;timestamp;pressure;altitude;pressure_sealevel;temperature;humidity
13869;BME280;7004;48.206;16.402;2023-02-28T00:01:25;100783.75;;;1.40;62.85
13869;BME280;7004;48.206;16.402;2023-02-28T00:03:53;100791.94;;;0.95;62.89
13869;BME280;7004;48.206;16.402;2023-02-28T00:06:19;100783.88;;;1.24;63.49
13869;BME280;7004;48.206;16.402;2023-02-28T00:08:46;100789.03;;;1.34;63.36
13869;BME280;7004;48.206;16.402;2023-02-28T00:11:14;100788.28;;;1.18;64.56
13869;BME280;7004;48.206;16.402;2023-02-28T00:13:44;100791.75;;;1.17;63.76
13869;BME280;7004;48.206;16.402;2023-02-28T00:16:19;100782.00;;;1.42;62.64
13869;BME280;7004;48.206;16.402;2023-02-28T00:18:45;100797.19;;;0.87;63.80
13869;BME280;7004;48.206;16.402;2023-02-28T00:21:13;100793.56;;;1.08;64.06
13869;BME280;7004;48.206;16.402;2023-02-28T00:23:40;100791.97;;;0.94;63.76
13869;BME280;7004;48.206;16.402;2023-02-28T00:26:06;100796.31;;;0.90;63.60
13869;BME280;7004;48.206;16.402;2023-02-28T00:28:33;100792.78;;;0.96;63.38
13869;BME280;7004;48.206;16.402;2023-02-28T00:30:59;100793.97;;;0.42;64.44
13869;BME280;7004;48.206;16.402;2023-02-28T00:33:27;100792.59;;;1.23;63.20
13869;BME280;7004;48.206;16.402;2023-02-28T00:36:06;100795.09;;;1.34;62.82
13869;BME280;7004;48.206;16.402;2023-02-28T00:38:33;100803.66;;;1.50;61.74
13869;BME280;7004;48.206;16.402;2023-02-28T00:41:00;100799.44;;;1.35;62.35
13869;BME280;7004;48.206;16.402;2023-02-28T00:43:32;100802.13;;;1.24;63.03
13869;BME280;7004;48.206;16.402;2023-02-28T00:45:58;100801.34;;;1.13;62.49
13869;BME280;7004;48.206;16.402;2023-02-28T00:48:24;100796.88;;;1.29;62.61
13869;BME280;7004;48.206;16.402;2023-02-28T00:50:50;100800.41;;;1.22;63.63
13869;BME280;7004;48.206;16.402;2023-02-28T00:53:16;100804.88;;;1.03;63.72
13869;BME280;7004;48.206;16.402;2023-02-28T00:55:43;100801.28;;;1.21;62.64
13869;BME280;7004;48.206;16.402;2023-02-28T00:58:09;100794.59;;;0.87;63.29
13869;BME280;7004;48.206;16.402;2023-02-28T01:00:36;100788.53;;;0.84;64.34
13869;BME280;7004;48.206;16.402;2023-02-28T01:03:02;100794.66;;;0.77;64.67
13869;BME280;7004;48.206;16.402;2023-02-28T01:05:28;100796.31;;;0.87;65.33
13869;BME280;7004;48.206;16.402;2023-02-28T01:07:54;100802.41;;;0.83;63.27
13869;BME280;7004;48.206;16.402;2023-02-28T01:10:20;100800.81;;;0.59;63.42
13869;BME280;7004;48.206;16.402;2023-02-28T01:12:46;100794.50;;;0.98;62.10
13869;BME280;7004;48.206;16.402;2023-02-28T01:15:12;100793.69;;;0.90;63.54
13869;BME280;7004;48.206;16.402;2023-02-28T01:17:38;100798.16;;;0.76;62.81
13869;BME280;7004;48.206;16.402;2023-02-28T01:20:05;100795.41;;;0.94;62.82
13869;BME280;7004;48.206;16.402;2023-02-28T01:22:31;100797.19;;;0.87;62.95
13869;BME280;7004;48.206;16.402;2023-02-28T01:24:57;100797.88;;;1.13;63.51
13869;BME280;7004;48.206;16.402;2023-02-28T01:27:24;100803.22;;;0.99;63.01
13869;BME280;7004;48.206;16.402;2023-02-28T01:29:50;100803.06;;;1.16;62.47
13869;BME280;7004;48.206;16.402;2023-02-28T01:32:17;100809.31;;;0.96;62.59
13869;BME280;7004;48.206;16.402;2023-02-28T01:34:43;100809.34;;;0.89;63.38
13869;BME280;7004;48.206;16.402;2023-02-28T01:37:09;100806.94;;;0.52;64.10
13869;BME280;7004;48.206;16.402;2023-02-28T01:39:35;100810.34;;;0.66;64.11
13869;BME280;7004;48.206;16.402;2023-02-28T01:42:01;100811.13;;;0.77;63.76
13869;BME280;7004;48.206;16.402;2023-02-28T01:48:10;100799.72;;;1.01;62.78
13869;BME280;7004;48.206;16.402;2023-02-28T01:50:41;100814.75;;;0.53;64.47
13869;BME280;7004;48.206;16.402;2023-02-28T01:53:14;100813.00;;;0.51;63.28
13869;BME280;7004;48.206;16.402;2023-02-28T01:55:46;100807.72;;;0.64;62.84
13869;BME280;7004;48.206;16.402;2023-02-28T01:58:12;100809.50;;;0.59;63.64
13869;BME280;7004;48.206;16.402;2023-02-28T02:00:39;100815.66;;;0.40;64.15
13869;BME280;7004;48.206;16.402;2023-02-28T02:03:12;100811.91;;;0.90;63.20
13869;BME280;7004;48.206;16.402;2023-02-28T02:05:40;100812.94;;;0.68;63.41
13869;BME280;7004;48.206;16.402;2023-02-28T02:08:17;100814.69;;;0.65;63.07
13869;BME280;7004;48.206;16.402;2023-02-28T02:11:00;100815.63;;;0.48;65.29
13869;BME280;7004;48.206;16.402;2023-02-28T02:20:16;100815.50;;;0.74;63.25
13869;BME280;7004;48.206;16.402;2023-02-28T02:29:34;100809.50;;;0.61;63.72
13869;BME280;7004;48.206;16.402;2023-02-28T02:32:47;100819.81;;;0.75;63.35
13869;BME280;7004;48.206;16.402;2023-02-28T02:41:44;100814.78;;;0.47;65.48
13869;BME280;7004;48.206;16.402;2023-02-28T02:44:43;100815.78;;;0.06;66.78
13869;BME280;7004;48.206;16.402;2023-02-28T02:47:19;100814.03;;;0.13;67.02
13869;BME280;7004;48.206;16.402;2023-02-28T02:49:52;100816.56;;;0.33;66.42
13869;BME280;7004;48.206;16.402;2023-02-28T02:52:24;100812.28;;;0.19;66.99
13869;BME280;7004;48.206;16.402;2023-02-28T02:54:55;100807.91;;;0.29;67.40
13869;BME280;7004;48.206;16.402;2023-02-28T02:57:58;100812.19;;;0.47;65.70
13869;BME280;7004;48.206;16.402;2023-02-28T03:00:30;100812.97;;;0.57;65.60
13869;BME280;7004;48.206;16.402;2023-02-28T03:03:01;100813.81;;;0.65;65.30
13869;BME280;7004;48.206;16.402;2023-02-28T03:05:49;100815.50;;;0.74;64.09
13869;BME280;7004;48.206;16.402;2023-02-28T03:08:17;100811.97;;;0.84;63.69
13869;BME280;7004;48.206;16.402;2023-02-28T03:10:48;100808.47;;;0.86;62.95
13869;BME280;7004;48.206;16.402;2023-02-28T03:23:01;100805.28;;;0.35;65.60
13869;BME280;7004;48.206;16.402;2023-02-28T03:25:46;100803.44;;;0.59;64.99
13869;BME280;7004;48.206;16.402;2023-02-28T03:28:35;100806.09;;;0.47;65.46
13869;BME280;7004;48.206;16.402;2023-02-28T03:31:21;100806.19;;;0.31;66.01
13869;BME280;7004;48.206;16.402;2023-02-28T03:34:01;100811.44;;;0.14;66.65
13869;BME280;7004;48.206;16.402;2023-02-28T03:36:39;100799.22;;;0.33;65.90
13869;BME280;7004;48.206;16.402;2023-02-28T03:39:22;100799.22;;;0.35;66.35
13869;BME280;7004;48.206;16.402;2023-02-28T03:42:13;100802.69;;;0.37;65.83
13869;BME280;7004;48.206;16.402;2023-02-28T03:44:47;100807.97;;;0.18;66.55
13869;BME280;7004;48.206;16.402;2023-02-28T03:48:01;100805.28;;;0.37;65.57
13869;BME280;7004;48.206;16.402;2023-02-28T03:50:38;100801.06;;;0.02;66.66
13869;BME280;7004;48.206;16.402;2023-02-28T03:59:49;100809.66;;;0.27;66.59
13869;BME280;7004;48.206;16.402;2023-02-28T04:07:51;100799.97;;;0.57;66.60
13869;BME280;7004;48.206;16.402;2023-02-28T04:10:18;100803.66;;;0.10;69.29
13869;BME280;7004;48.206;16.402;2023-02-28T04:12:44;100807.97;;;0.12;68.40
13869;BME280;7004;48.206;16.402;2023-02-28T04:15:10;100806.13;;;0.36;67.13
13869;BME280;7004;48.206;16.402;2023-02-28T04:17:37;100808.72;;;0.43;66.09
13869;BME280;7004;48.206;16.402;2023-02-28T04:20:04;100807.88;;;0.37;66.40
13869;BME280;7004;48.206;16.402;2023-02-28T04:22:35;100809.59;;;0.42;66.50
13869;BME280;7004;48.206;16.402;2023-02-28T04:25:02;100810.38;;;0.57;66.01
13869;BME280;7004;48.206;16.402;2023-02-28T04:27:28;100805.22;;;0.48;66.98
13869;BME280;7004;48.206;16.402;2023-02-28T04:29:54;100817.34;;;0.49;66.75
13869;BME280;7004;48.206;16.402;2023-02-28T04:32:20;100819.97;;;0.47;66.73
13869;BME280;7004;48.206;16.402;2023-02-28T04:34:47;100816.47;;;0.57;66.32
13869;BME280;7004;48.206;16.402;2023-02-28T04:37:13;100813.84;;;0.54;66.51
13869;BME280;7004;48.206;16.402;2023-02-28T04:39:41;100814.81;;;0.38;67.58
13869;BME280;7004;48.206;16.402;2023-02-28T04:42:09;100806.19;;;0.27;68.27
13869;BME280;7004;48.206;16.402;2023-02-28T04:44:36;100816.66;;;0.16;68.42
13869;BME280;7004;48.206;16.402;2023-02-28T04:47:02;100822.78;;;-0.05;69.52
13869;BME280;7004;48.206;16.402;2023-02-28T04:49:28;100817.56;;;-0.11;69.46
13869;BME280;7004;48.206;16.402;2023-02-28T04:51:54;100819.28;;;-0.04;69.70
13869;BME280;7004;48.206;16.402;2023-02-28T04:54:21;100811.47;;;0.08;69.38
13869;BME280;7004;48.206;16.402;2023-02-28T04:56:47;100813.22;;;-0.02;69.67
13869;BME280;7004;48.206;16.402;2023-02-28T04:59:15;100808.91;;;-0.12;69.87
13869;BME280;7004;48.206;16.402;2023-02-28T05:01:47;100815.81;;;-0.06;70.12
13869;BME280;7004;48.206;16.402;2023-02-28T05:04:14;100825.38;;;-0.27;70.91
13869;BME280;7004;48.206;16.402;2023-02-28T05:06:40;100820.19;;;-0.14;70.13
13869;BME280;7004;48.206;16.402;2023-02-28T05:09:06;100817.56;;;-0.05;69.87
13869;BME280;7004;48.206;16.402;2023-02-28T05:11:34;100823.66;;;-0.23;70.78
13869;BME280;7004;48.206;16.402;2023-02-28T05:14:02;100815.81;;;-0.03;70.16
13869;BME280;7004;48.206;16.402;2023-02-28T05:16:30;100824.47;;;-0.01;70.41
13869;BME280;7004;48.206;16.402;2023-02-28T05:18:56;100821.03;;;-0.12;70.33
13869;BME280;7004;48.206;16.402;2023-02-28T05:21:29;100822.78;;;-0.27;70.80
13869;BME280;7004;48.206;16.402;2023-02-28T05:24:02;100818.47;;;-0.23;70.65
13869;BME280;7004;48.206;16.402;2023-02-28T05:26:29;100815.78;;;0.06;70.29
13869;BME280;7004;48.206;16.402;2023-02-28T05:28:55;100817.56;;;-0.08;71.23
13869;BME280;7004;48.206;16.402;2023-02-28T05:31:22;100835.81;;;-0.36;71.64
13869;BME280;7004;48.206;16.402;2023-02-28T05:33:48;100834.94;;;-0.18;72.07
13869;BME280;7004;48.206;16.402;2023-02-28T05:36:14;100833.22;;;-0.63;73.15
13869;BME280;7004;48.206;16.402;2023-02-28T05:38:41;100839.28;;;-0.46;73.15
13869;BME280;7004;48.206;16.402;2023-02-28T05:41:09;100835.78;;;-0.17;72.41
13869;BME280;7004;48.206;16.402;2023-02-28T05:43:36;100842.75;;;-0.46;72.97
13869;BME280;7004;48.206;16.402;2023-02-28T05:46:07;100841.00;;;-0.25;72.41
13869;BME280;7004;48.206;16.402;2023-02-28T05:48:36;100844.41;;;-0.06;72.78
13869;BME280;7004;48.206;16.402;2023-02-28T05:51:03;100850.47;;;-0.04;71.79
13869;BME280;7004;48.206;16.402;2023-02-28T05:53:30;100854.84;;;-0.17;72.97
13869;BME280;7004;48.206;16.402;2023-02-28T05:55:57;100855.69;;;-0.07;73.08
13869;BME280;7004;48.206;16.402;2023-02-28T05:58:23;100847.03;;;-0.09;72.84
13869;BME280;7004;48.206;16.402;2023-02-28T06:00:54;100851.34;;;-0.02;72.89
13869;BME280;7004;48.206;16.402;2023-02-28T06:03:20;100857.44;;;-0.26;73.05
13869;BME280;7004;48.206;16.402;2023-02-28T06:05:46;100847.88;;;0.04;72.88
13869;BME280;7004;48.206;16.402;2023-02-28T06:08:13;100852.16;;;0.20;72.07
13869;BME280;7004;48.206;16.402;2023-02-28T06:10:39;100860.03;;;-0.05;72.42
13869;BME280;7004;48.206;16.402;2023-02-28T06:13:05;100850.50;;;-0.10;73.96
13869;BME280;7004;48.206;16.402;2023-02-28T06:15:32;100853.13;;;-0.18;74.81
13869;BME280;7004;48.206;16.402;2023-02-28T06:17:58;100857.41;;;-0.05;73.65
13869;BME280;7004;48.206;16.402;2023-02-28T06:20:26;100860.00;;;0.11;74.02
13869;BME280;7004;48.206;16.402;2023-02-28T06:22:58;100863.44;;;0.11;74.09
13869;BME280;7004;48.206;16.402;2023-02-28T06:25:26;100858.28;;;0.04;74.24
13869;BME280;7004;48.206;16.402;2023-02-28T06:27:54;100857.41;;;-0.11;73.69
13869;BME280;7004;48.206;16.402;2023-02-28T06:30:20;100865.91;;;0.53;72.02
13869;BME280;7004;48.206;16.402;2023-02-28T06:32:51;100864.28;;;0.19;72.96
13869;BME280;7004;48.206;16.402;2023-02-28T06:35:17;100868.63;;;0.13;72.92
13869;BME280;7004;48.206;16.402;2023-02-28T06:37:44;100878.94;;;0.53;72.53
13869;BME280;7004;48.206;16.402;2023-02-28T06:40:11;100877.13;;;0.65;71.28
13869;BME280;7004;48.206;16.402;2023-02-28T06:42:38;100880.66;;;0.54;72.55
13869;BME280;7004;48.206;16.402;2023-02-28T06:45:05;100885.91;;;0.38;72.54
13869;BME280;7004;48.206;16.402;2023-02-28T06:47:37;100885.97;;;0.09;72.96
13869;BME280;7004;48.206;16.402;2023-02-28T06:50:04;100881.63;;;0.17;72.76
13869;BME280;7004;48.206;16.402;2023-02-28T06:52:31;100899.72;;;0.51;72.31
13869;BME280;7004;48.206;16.402;2023-02-28T06:54:57;100887.53;;;0.64;70.67
13869;BME280;7004;48.206;16.402;2023-02-28T06:57:30;100888.47;;;0.49;71.02
13869;BME280;7004;48.206;16.402;2023-02-28T07:00:01;100891.06;;;0.55;72.19
13869;BME280;7004;48.206;16.402;2023-02-28T07:02:29;100884.06;;;0.73;71.20
13869;BME280;7004;48.206;16.402;2023-02-28T07:04:55;100884.88;;;0.79;70.45
13869;BME280;7004;48.206;16.402;2023-02-28T07:07:21;100881.28;;;1.02;70.44
13869;BME280;7004;48.206;16.402;2023-02-28T07:09:47;100883.00;;;1.04;68.78
13869;BME280;7004;48.206;16.402;2023-02-28T07:12:13;100881.16;;;1.19;68.00
13869;BME280;7004;48.206;16.402;2023-02-28T07:14:39;100884.63;;;1.24;67.85
13869;BME280;7004;48.206;16.402;2023-02-28T07:17:10;100884.00;;;0.80;70.11
13869;BME280;7004;48.206;16.402;2023-02-28T07:19:39;100886.63;;;0.79;69.34
13869;BME280;7004;48.206;16.402;2023-02-28T07:22:06;100884.72;;;1.08;68.15
13869;BME280;7004;48.206;16.402;2023-02-28T07:24:32;100885.53;;;1.17;68.78
13869;BME280;7004;48.206;16.402;2023-02-28T07:26:58;100885.47;;;1.24;68.09
13869;BME280;7004;48.206;16.402;2023-02-28T07:29:25;100884.63;;;1.21;69.10
13869;BME280;7004;48.206;16.402;2023-02-28T07:31:51;100893.22;;;1.38;68.60
13869;BME280;7004;48.206;16.402;2023-02-28T07:34:20;100893.25;;;1.30;68.70
13869;BME280;7004;48.206;16.402;2023-02-28T07:36:47;100895.69;;;1.57;69.04
13869;BME280;7004;48.206;16.402;2023-02-28T07:39:13;100895.72;;;1.47;67.86
13869;BME280;7004;48.206;16.402;2023-02-28T07:41:39;100898.88;;;1.88;65.91
13869;BME280;7004;48.206;16.402;2023-02-28T07:44:12;100897.06;;;1.94;66.16
13869;BME280;7004;48.206;16.402;2023-02-28T07:46:39;100897.75;;;2.16;65.56
13869;BME280;7004;48.206;16.402;2023-02-28T07:49:06;100902.66;;;1.50;66.91
13869;BME280;7004;48.206;16.402;2023-02-28T07:51:33;100907.78;;;1.64;66.93
13869;BME280;7004;48.206;16.402;2023-02-28T07:53:59;100912.19;;;1.57;67.07
13869;BME280;7004;48.206;16.402;2023-02-28T07:56:25;100912.19;;;1.57;67.30
13869;BME280;7004;48.206;16.402;2023-02-28T07:58:51;100910.75;;;2.21;65.41
13869;BME280;7004;48.206;16.402;2023-02-28T08:01:17;100917.41;;;1.52;67.63
13869;BME280;7004;48.206;16.402;2023-02-28T08:03:45;100906.19;;;2.42;64.06
13869;BME280;7004;48.206;16.402;2023-02-28T08:06:22;100913.28;;;2.26;64.40
13869;BME280;7004;48.206;16.402;2023-02-28T08:08:49;100918.84;;;2.74;63.44
13869;BME280;7004;48.206;16.402;2023-02-28T08:11:17;100913.94;;;2.49;64.67
13869;BME280;7004;48.206;16.402;2023-02-28T08:13:44;100913.25;;;2.30;63.54
13869;BME280;7004;48.206;16.402;2023-02-28T08:16:13;100912.66;;;2.02;65.40
13869;BME280;7004;48.206;16.402;2023-02-28T08:18:43;100906.94;;;2.51;63.62
13869;BME280;7004;48.206;16.402;2023-02-28T08:21:10;100912.13;;;2.53;62.76
13869;BME280;7004;48.206;16.402;2023-02-28T08:23:37;100910.31;;;3.26;60.71
13869;BME280;7004;48.206;16.402;2023-02-28T08:26:03;100914.84;;;3.13;61.76
13869;BME280;7004;48.206;16.402;2023-02-28T08:28:30;100903.66;;;3.62;60.86
13869;BME280;7004;48.206;16.402;2023-02-28T08:30:56;100906.63;;;3.93;60.18
13869;BME280;7004;48.206;16.402;2023-02-28T08:33:23;100913.09;;;3.15;61.03
13869;BME280;7004;48.206;16.402;2023-02-28T08:35:54;100905.72;;;3.96;58.74
13869;BME280;7004;48.206;16.402;2023-02-28T08:38:20;100904.88;;;4.44;56.62
13869;BME280;7004;48.206;16.402;2023-02-28T08:40:47;100904.53;;;4.14;58.68
13869;BME280;7004;48.206;16.402;2023-02-28T08:43:13;100903.75;;;4.10;57.85
13869;BME280;7004;48.206;16.402;2023-02-28T08:45:39;100902.63;;;5.09;55.21
13869;BME280;7004;48.206;16.402;2023-02-28T08:48:06;100907.78;;;4.27;57.05
13869;BME280;7004;48.206;16.402;2023-02-28T08:50:33;100910.59;;;4.16;56.38
13869;BME280;7004;48.206;16.402;2023-02-28T08:52:59;100907.81;;;5.12;54.00
13869;BME280;7004;48.206;16.402;2023-02-28T08:55:26;100900.25;;;6.42;50.51
13869;BME280;7004;48.206;16.402;2023-02-28T08:57:52;100902.47;;;6.87;48.83
13869;BME280;7004;48.206;16.402;2023-02-28T09:00:19;100911.97;;;5.21;52.22
13869;BME280;7004;48.206;16.402;2023-02-28T09:02:45;100905.00;;;5.95;50.73
13869;BME280;7004;48.206;16.402;2023-02-28T09:05:11;100906.78;;;6.60;49.19
13869;BME280;7004;48.206;16.402;2023-02-28T09:07:37;100905.41;;;6.76;49.10
13869;BME280;7004;48.206;16.402;2023-02-28T09:10:04;100904.25;;;5.88;49.44
13869;BME280;7004;48.206;16.402;2023-02-28T09:12:34;100905.88;;;5.95;49.12
13869;BME280;7004;48.206;16.402;2023-02-28T09:15:02;100899.06;;;7.13;47.68
13869;BME280;7004;48.206;16.402;2023-02-28T09:17:28;100907.25;;;5.73;49.04
13869;BME280;7004;48.206;16.402;2023-02-28T09:19:54;100908.69;;;7.14;48.06
13869;BME280;7004;48.206;16.402;2023-02-28T09:22:20;100904.34;;;6.19;48.88
13869;BME280;7004;48.206;16.402;2023-02-28T09:24:47;100908.47;;;7.21;47.39
13869;BME280;7004;48.206;16.402;2023-02-28T09:27:13;100918.38;;;5.08;50.95
13869;BME280;7004;48.206;16.402;2023-02-28T09:29:39;100905.72;;;6.34;49.45
13869;BME280;7004;48.206;16.402;2023-02-28T09:32:05;100907.28;;;6.41;47.94
13869;BME280;7004;48.206;16.402;2023-02-28T09:34:33;100912.28;;;6.18;47.41
13869;BME280;7004;48.206;16.402;2023-02-28T09:37:00;100911.72;;;6.39;46.94
13869;BME280;7004;48.206;16.402;2023-02-28T09:39:26;100920.34;;;5.37;49.97
13869;BME280;7004;48.206;16.402;2023-02-28T09:41:53;100913.91;;;6.22;48.08
13869;BME280;7004;48.206;16.402;2023-02-28T09:47:39;100917.22;;;5.96;49.83
13869;BME280;7004;48.206;16.402;2023-02-28T09:52:54;100924.53;;;5.45;50.80
13869;BME280;7004;48.206;16.402;2023-02-28T09:55:30;100927.41;;;4.94;52.53
13869;BME280;7004;48.206;16.402;2023-02-28T09:57:57;100929.53;;;5.56;51.63
13869;BME280;7004;48.206;16.402;2023-02-28T10:00:39;100934.47;;;4.46;54.46
13869;BME280;7004;48.206;16.402;2023-02-28T10:03:22;100929.22;;;5.31;53.06
13869;BME280;7004;48.206;16.402;2023-02-28T10:09:04;100931.53;;;5.81;51.35
13869;BME280;7004;48.206;16.402;2023-02-28T10:11:36;100934.34;;;5.73;52.19
13869;BME280;7004;48.206;16.402;2023-02-28T10:14:33;100919.22;;;5.84;51.66
13869;BME280;7004;48.206;16.402;2023-02-28T10:17:27;100927.22;;;5.80;51.13
13869;BME280;7004;48.206;16.402;2023-02-28T10:20:13;100926.09;;;5.90;51.67
13869;BME280;7004;48.206;16.402;2023-02-28T10:23:03;100918.00;;;6.65;49.75
13869;BME280;7004;48.206;16.402;2023-02-28T10:25:37;100923.31;;;7.22;49.32
13869;BME280;7004;48.206;16.402;2023-02-28T10:28:15;100914.22;;;7.34;48.89
13869;BME280;7004;48.206;16.402;2023-02-28T10:30:46;100901.34;;;8.30;46.74
13869;BME280;7004;48.206;16.402;2023-02-28T10:33:25;100901.22;;;8.09;45.87
13869;BME280;7004;48.206;16.402;2023-02-28T10:35:54;100904.53;;;7.63;46.62
13869;BME280;7004;48.206;16.402;2023-02-28T10:38:33;100903.19;;;6.62;47.85
13869;BME280;7004;48.206;16.402;2023-02-28T10:43:41;100896.47;;;6.52;48.33
13869;BME280;7004;48.206;16.402;2023-02-28T10:51:36;100890.09;;;7.20;49.96
13869;BME280;7004;48.206;16.402;2023-02-28T10:54:04;100890.34;;;6.83;49.37
13869;BME280;7004;48.206;16.402;2023-02-28T10:56:32;100892.16;;;5.82;50.39
13869;BME280;7004;48.206;16.402;2023-02-28T11:01:45;100887.72;;;6.20;50.33
13869;BME280;7004;48.206;16.402;2023-02-28T11:07:23;100883.44;;;5.82;50.22
13869;BME280;7004;48.206;16.402;2023-02-28T11:09:56;100880.84;;;6.15;50.66
13869;BME280;7004;48.206;16.402;2023-02-28T11:12:34;100875.00;;;5.33;52.33
13869;BME280;7004;48.206;16.402;2023-02-28T11:15:17;100876.22;;;7.15;48.18
13869;BME280;7004;48.206;16.402;2023-02-28T11:18:01;100872.31;;;5.70;49.66
13869;BME280;7004;48.206;16.402;2023-02-28T11:20:33;100863.03;;;5.57;50.83
13869;BME280;7004;48.206;16.402;2023-02-28T11:23:04;100864.25;;;7.05;47.42
13869;BME280;7004;48.206;16.402;2023-02-28T11:25:37;100851.06;;;6.78;48.15
13869;BME280;7004;48.206;16.402;2023-02-28T11:33:48;100842.41;;;6.12;48.21
13869;BME280;7004;48.206;16.402;2023-02-28T11:36:28;100845.50;;;6.59;47.70
13869;BME280;7004;48.206;16.402;2023-02-28T11:39:00;100836.72;;;8.46;44.52
13869;BME280;7004;48.206;16.402;2023-02-28T11:56:39;100815.16;;;9.69;40.53
13869;BME280;7004;48.206;16.402;2023-02-28T12:05:46;100807.47;;;8.04;43.59
13869;BME280;7004;48.206;16.402;2023-02-28T12:17:26;100802.88;;;8.81;42.50
13869;BME280;7004;48.206;16.402;2023-02-28T12:24:09;100789.84;;;8.55;39.10
13869;BME280;7004;48.206;16.402;2023-02-28T12:26:46;100786.66;;;8.21;40.48
13869;BME280;7004;48.206;16.402;2023-02-28T12:29:30;100789.94;;;8.28;40.27
13869;BME280;7004;48.206;16.402;2023-02-28T12:32:33;100789.94;;;8.28;39.55
13869;BME280;7004;48.206;16.402;2023-02-28T12:35:18;100781.53;;;8.42;39.13
13869;BME280;7004;48.206;16.402;2023-02-28T12:38:12;100782.03;;;8.28;39.86
13869;BME280;7004;48.206;16.402;2023-02-28T12:41:12;100766.97;;;9.01;38.58
13869;BME280;7004;48.206;16.402;2023-02-28T12:43:48;100771.00;;;8.42;39.09
13869;BME280;7004;48.206;16.402;2023-02-28T12:46:24;100772.66;;;7.46;41.11
13869;BME280;7004;48.206;16.402;2023-02-28T12:48:56;100774.75;;;8.11;40.29
13869;BME280;7004;48.206;16.402;2023-02-28T12:51:25;100764.72;;;6.94;40.94
13869;BME280;7004;48.206;16.402;2023-02-28T12:54:24;100774.41;;;7.18;40.34
13869;BME280;7004;48.206;16.402;2023-02-28T12:57:15;100773.41;;;6.96;41.33
13869;BME280;7004;48.206;16.402;2023-02-28T12:59:57;100766.13;;;7.31;40.46
13869;BME280;7004;48.206;16.402;2023-02-28T13:08:14;100758.31;;;8.28;39.49
13869;BME280;7004;48.206;16.402;2023-02-28T13:10:50;100759.78;;;8.12;38.81
13869;BME280;7004;48.206;16.402;2023-02-28T13:13:29;100762.16;;;7.71;38.93
13869;BME280;7004;48.206;16.402;2023-02-28T13:16:07;100757.28;;;7.33;38.92
13869;BME280;7004;48.206;16.402;2023-02-28T13:21:21;100763.38;;;6.81;40.08
13869;BME280;7004;48.206;16.402;2023-02-28T13:34:46;100754.66;;;7.33;40.17
13869;BME280;7004;48.206;16.402;2023-02-28T13:40:28;100762.63;;;6.47;41.57
13869;BME280;7004;48.206;16.402;2023-02-28T13:42:55;100753.66;;;7.62;40.09
13869;BME280;7004;48.206;16.402;2023-02-28T13:45:31;100756.72;;;6.69;40.25
13869;BME280;7004;48.206;16.402;2023-02-28T13:48:19;100745.34;;;7.98;37.96
13869;BME280;7004;48.206;16.402;2023-02-28T13:50:50;100753.91;;;7.55;39.49
13869;BME280;7004;48.206;16.402;2023-02-28T13:53:33;100751.63;;;7.19;40.37
13869;BME280;7004;48.206;16.402;2023-02-28T13:56:26;100752.50;;;7.71;39.38
13869;BME280;7004;48.206;16.402;2023-02-28T13:59:19;100747.53;;;7.62;39.57
13869;BME280;7004;48.206;16.402;2023-02-28T14:02:26;100748.13;;;8.42;38.39
13869;BME280;7004;48.206;16.402;2023-02-28T14:05:19;100749.25;;;8.12;39.45
13869;BME280;7004;48.206;16.402;2023-02-28T14:07:57;100750.44;;;7.54;40.99
13869;BME280;7004;48.206;16.402;2023-02-28T14:13:41;100748.81;;;7.50;40.56
13869;BME280;7004;48.206;16.402;2023-02-28T14:16:44;100753.06;;;7.29;41.17
13869;BME280;7004;48.206;16.402;2023-02-28T14:19:28;100753.91;;;7.30;41.66
13869;BME280;7004;48.206;16.402;2023-02-28T14:22:46;100754.16;;;6.67;42.51
13869;BME280;7004;48.206;16.402;2023-02-28T14:31:11;100747.72;;;6.77;44.16
13869;BME280;7004;48.206;16.402;2023-02-28T14:36:38;100737.72;;;6.61;43.37
13869;BME280;7004;48.206;16.402;2023-02-28T14:39:14;100740.78;;;5.84;45.17
13869;BME280;7004;48.206;16.402;2023-02-28T14:41:43;100727.06;;;6.93;43.08
13869;BME280;7004;48.206;16.402;2023-02-28T14:44:28;100736.41;;;6.74;44.47
13869;BME280;7004;48.206;16.402;2023-02-28T14:46:56;100741.09;;;6.36;45.41
13869;BME280;7004;48.206;16.402;2023-02-28T14:49:36;100741.59;;;6.49;45.65
13869;BME280;7004;48.206;16.402;2023-02-28T14:52:13;100743.75;;;6.34;44.90
13869;BME280;7004;48.206;16.402;2023-02-28T14:54:41;100736.97;;;6.57;45.08
13869;BME280;7004;48.206;16.402;2023-02-28T14:57:23;100737.47;;;6.68;45.26
13869;BME280;7004;48.206;16.402;2023-02-28T15:00:15;100745.34;;;6.40;45.52
13869;BME280;7004;48.206;16.402;2023-02-28T15:02:43;100743.53;;;6.42;45.58
13869;BME280;7004;48.206;16.402;2023-02-28T15:07:38;100730.63;;;6.91;46.46
13869;BME280;7004;48.206;16.402;2023-02-28T15:10:24;100740.38;;;6.31;47.30
13869;BME280;7004;48.206;16.402;2023-02-28T15:18:28;100753.72;;;6.23;47.42
13869;BME280;7004;48.206;16.402;2023-02-28T15:21:28;100752.41;;;6.08;46.91
13869;BME280;7004;48.206;16.402;2023-02-28T15:24:04;100751.94;;;5.94;47.44
13869;BME280;7004;48.206;16.402;2023-02-28T15:26:43;100750.50;;;6.13;48.42
13869;BME280;7004;48.206;16.402;2023-02-28T15:29:15;100745.59;;;6.01;48.49
13869;BME280;7004;48.206;16.402;2023-02-28T15:31:50;100745.66;;;6.00;47.75
13869;BME280;7004;48.206;16.402;2023-02-28T15:34:33;100756.34;;;5.90;48.26
13869;BME280;7004;48.206;16.402;2023-02-28T15:37:00;100753.84;;;5.86;48.02
13869;BME280;7004;48.206;16.402;2023-02-28T15:39:28;100751.16;;;5.58;48.71
13869;BME280;7004;48.206;16.402;2023-02-28T15:42:12;100757.22;;;6.22;47.77
13869;BME280;7004;48.206;16.402;2023-02-28T15:44:43;100755.91;;;5.76;47.95
13869;BME280;7004;48.206;16.402;2023-02-28T15:47:26;100756.31;;;5.92;47.84
13869;BME280;7004;48.206;16.402;2023-02-28T15:50:03;100754.31;;;5.69;49.14
13869;BME280;7004;48.206;16.402;2023-02-28T15:52:40;100750.22;;;5.59;49.86
13869;BME280;7004;48.206;16.402;2023-02-28T15:55:28;100760.41;;;5.71;48.48
13869;BME280;7004;48.206;16.402;2023-02-28T15:58:00;100752.34;;;5.44;49.27